createdAt,value
2018-03-23T00:00:42.133Z,51.58
2018-03-23T00:03:09.605Z,49.33
2018-03-23T00:05:37.092Z,47.25
2018-03-23T00:08:05.579Z,50.33
2018-03-23T00:10:33.108Z,52.20
2018-03-23T00:13:00.612Z,56.97
2018-03-23T00:15:28.403Z,56.60
2018-03-23T00:17:56.657Z,46.08
2018-03-23T00:20:24.124Z,48.75
2018-03-23T00:22:52.708Z,52.13
2018-03-23T00:25:20.977Z,53.60
2018-03-23T00:27:48.455Z,39.90
2018-03-23T00:30:15.944Z,51.97
2018-03-23T00:32:43.419Z,43.40
2018-03-23T00:35:10.901Z,36.75
2018-03-23T00:37:38.682Z,40.63
2018-03-23T00:40:06.916Z,37.40
2018-03-23T00:42:34.448Z,44.85
2018-03-23T00:45:02.269Z,44.13
2018-03-23T00:47:29.760Z,45.55
2018-03-23T00:49:57.247Z,45.53
2018-03-23T00:52:25.057Z,43.90
2018-03-23T00:54:53.339Z,51.47
2018-03-23T00:57:31.538Z,42.83
2018-03-23T00:59:59.856Z,38.53
2018-03-23T01:02:27.332Z,44.30
2018-03-23T01:04:55.133Z,40.00
2018-03-23T01:07:23.464Z,46.13
2018-03-23T01:09:50.928Z,39.95
2018-03-23T01:12:18.427Z,36.17
2018-03-23T01:14:46.655Z,37.97
2018-03-23T01:17:14.120Z,45.88
2018-03-23T01:19:41.914Z,35.15
2018-03-23T01:22:19.151Z,34.97
2018-03-23T01:24:46.959Z,37.05
2018-03-23T01:27:15.395Z,42.22
2018-03-23T01:29:42.912Z,45.30
2018-03-23T01:32:11.439Z,34.78
2018-03-23T01:34:38.942Z,45.05
2018-03-23T01:37:06.427Z,33.38
2018-03-23T01:39:34.271Z,35.78
2018-03-23T01:42:02.531Z,33.20
2018-03-23T01:44:30.008Z,33.85
2018-03-23T01:46:58.693Z,34.60
2018-03-23T01:49:27.045Z,28.80
2018-03-23T01:51:54.528Z,38.30
2018-03-23T01:54:23.108Z,33.60
2018-03-23T01:56:50.617Z,40.20
2018-03-23T01:59:18.103Z,33.95
2018-03-23T02:01:45.627Z,37.85
2018-03-23T02:04:13.111Z,33.40
2018-03-23T02:06:41.361Z,32.10
2018-03-23T02:09:09.208Z,29.27
2018-03-23T02:11:36.705Z,22.67
2018-03-23T02:14:04.176Z,25.73
2018-03-23T02:16:31.655Z,27.37
2018-03-23T02:18:59.919Z,26.00
2018-03-23T02:21:27.389Z,24.15
2018-03-23T02:23:55.984Z,26.92
2018-03-23T02:26:24.220Z,29.23
2018-03-23T02:28:51.751Z,28.30
2018-03-23T02:31:19.227Z,28.48
2018-03-23T02:33:46.688Z,26.00
2018-03-23T02:36:14.168Z,19.40
2018-03-23T02:38:42.096Z,24.55
2018-03-23T02:41:09.564Z,20.80
2018-03-23T02:43:37.066Z,19.85
2018-03-23T02:46:04.917Z,23.42
2018-03-23T02:48:32.433Z,21.65
2018-03-23T02:50:59.918Z,24.23
2018-03-23T02:53:27.660Z,17.52
2018-03-23T02:55:55.142Z,20.05
2018-03-23T02:58:22.664Z,20.42
2018-03-23T03:00:50.629Z,19.50
2018-03-23T03:03:18.109Z,17.17
2018-03-23T03:05:45.598Z,18.62
2018-03-23T03:08:13.203Z,20.15
2018-03-23T03:10:40.696Z,22.25
2018-03-23T03:13:08.218Z,21.35
2018-03-23T03:15:36.045Z,22.77
2018-03-23T03:18:04.288Z,20.10
2018-03-23T03:20:31.762Z,22.70
2018-03-23T03:22:59.239Z,19.67
2018-03-23T03:25:27.495Z,23.27
2018-03-23T03:27:55.006Z,18.17
2018-03-23T03:30:22.864Z,20.00
2018-03-23T03:32:50.333Z,22.42
2018-03-23T03:35:17.815Z,19.33
2018-03-23T03:37:45.616Z,26.25
2018-03-23T03:40:13.847Z,20.48
2018-03-23T03:42:41.328Z,24.25
2018-03-23T03:45:09.108Z,23.83
2018-03-23T03:47:36.709Z,17.83
2018-03-23T03:50:04.267Z,22.05
2018-03-23T03:52:31.935Z,22.98
2018-03-23T03:54:59.489Z,26.73
2018-03-23T03:57:26.960Z,26.55
2018-03-23T03:59:54.462Z,31.25
2018-03-23T04:02:22.745Z,28.10
2018-03-23T04:04:51.068Z,26.87
2018-03-23T04:07:19.112Z,25.40
2018-03-23T04:09:46.600Z,19.23
2018-03-23T04:12:14.067Z,20.10
2018-03-23T04:14:41.912Z,26.10
2018-03-23T04:17:09.376Z,25.50
2018-03-23T04:19:36.877Z,28.70
2018-03-23T04:22:04.348Z,27.37
2018-03-23T04:24:32.588Z,25.08
2018-03-23T04:27:00.072Z,23.98
2018-03-23T04:29:28.694Z,27.80
2018-03-23T04:31:56.157Z,25.17
2018-03-23T04:34:24.020Z,25.65
2018-03-23T04:36:52.551Z,28.42
2018-03-23T04:39:20.803Z,27.08
2018-03-23T04:41:48.277Z,25.17
2018-03-23T04:44:16.159Z,28.02
2018-03-23T04:46:44.093Z,28.20
2018-03-23T04:49:11.591Z,26.52
2018-03-23T04:51:39.090Z,25.90
2018-03-23T04:54:07.220Z,26.58
2018-03-23T04:56:35.457Z,22.92
2018-03-23T04:59:03.347Z,28.00
2018-03-23T05:01:31.265Z,25.65
2018-03-23T05:03:59.878Z,21.50
2018-03-23T05:06:27.648Z,24.50
2018-03-23T05:08:55.113Z,19.80
2018-03-23T05:11:22.593Z,20.30
2018-03-23T05:13:50.858Z,26.40
2018-03-23T05:16:19.108Z,22.85
2018-03-23T05:18:47.021Z,23.67
2018-03-23T05:21:14.860Z,21.95
2018-03-23T05:23:42.362Z,19.27
2018-03-23T05:26:10.376Z,18.48
2018-03-23T05:28:38.259Z,22.10
2018-03-23T05:31:06.123Z,21.80
2018-03-23T05:33:33.656Z,24.17
2018-03-23T05:36:01.186Z,20.45
2018-03-23T05:38:28.671Z,20.02
2018-03-23T05:40:56.152Z,21.37
2018-03-23T05:43:23.929Z,22.73
2018-03-23T05:45:52.243Z,20.67
2018-03-23T05:48:19.721Z,18.08
2018-03-23T05:50:47.212Z,20.00
2018-03-23T05:53:15.088Z,17.87
2018-03-23T05:55:43.093Z,18.75
2018-03-23T05:58:10.920Z,18.40
2018-03-23T06:00:39.168Z,20.85
2018-03-23T06:03:06.641Z,20.15
2018-03-23T06:05:34.162Z,24.58
2018-03-23T06:08:01.709Z,20.27
2018-03-23T06:10:29.678Z,16.90
2018-03-23T06:12:57.549Z,23.55
2018-03-23T06:15:25.024Z,19.40
2018-03-23T06:17:53.260Z,19.05
2018-03-23T06:20:21.091Z,24.58
2018-03-23T06:22:48.631Z,20.62
2018-03-23T06:25:16.877Z,18.92
2018-03-23T06:27:45.255Z,18.12
2018-03-23T06:30:12.773Z,17.48
2018-03-23T06:32:40.783Z,18.80
2018-03-23T06:35:08.697Z,17.67
2018-03-23T06:37:36.617Z,15.63
2018-03-23T06:40:04.867Z,17.98
2018-03-23T06:42:33.029Z,14.98
2018-03-23T06:45:00.916Z,18.85
2018-03-23T06:47:28.778Z,22.30
2018-03-23T06:49:56.957Z,20.55
2018-03-23T06:52:24.823Z,13.15
2018-03-23T06:54:52.963Z,21.65
2018-03-23T06:57:21.763Z,13.52
2018-03-23T06:59:49.623Z,19.60
2018-03-23T07:02:17.858Z,11.05
2018-03-23T07:04:46.000Z,19.15
2018-03-23T07:07:13.884Z,18.65
2018-03-23T07:09:41.753Z,14.27
2018-03-23T07:12:09.568Z,17.42
2018-03-23T07:14:37.100Z,22.60
2018-03-23T07:17:04.650Z,17.58
2018-03-23T07:19:32.164Z,16.62
2018-03-23T07:22:00.096Z,12.20
2018-03-23T07:24:27.966Z,8.63
2018-03-23T07:26:55.735Z,17.05
2018-03-23T07:29:23.588Z,13.68
2018-03-23T07:31:51.471Z,15.18
2018-03-23T07:34:19.350Z,15.77
2018-03-23T07:36:46.847Z,10.10
2018-03-23T07:39:15.118Z,16.90
2018-03-23T07:41:43.260Z,15.30
2018-03-23T07:44:10.816Z,15.13
2018-03-23T07:46:38.668Z,14.23
2018-03-23T07:49:06.586Z,10.63
2018-03-23T07:51:34.825Z,17.27
2018-03-23T07:54:02.695Z,13.88
2018-03-23T07:56:30.592Z,13.55
2018-03-23T07:58:58.150Z,9.20
2018-03-23T08:01:25.611Z,10.98
2018-03-23T08:03:53.388Z,14.80
2018-03-23T08:06:21.616Z,11.35
2018-03-23T08:08:49.871Z,9.73
2018-03-23T08:11:18.048Z,9.88
2018-03-23T08:13:45.992Z,13.50
2018-03-23T08:16:13.447Z,12.48
2018-03-23T08:18:41.797Z,8.68
2018-03-23T08:21:09.310Z,10.40
2018-03-23T08:23:36.781Z,15.98
2018-03-23T08:26:05.367Z,11.45
2018-03-23T08:28:33.608Z,11.70
2018-03-23T08:31:01.540Z,10.32
2018-03-23T08:33:29.012Z,8.05
2018-03-23T08:35:56.476Z,10.32
2018-03-23T08:38:24.831Z,10.85
2018-03-23T08:40:52.656Z,9.20
2018-03-23T08:43:20.973Z,10.30
2018-03-23T08:45:48.942Z,10.57
2018-03-23T08:48:17.192Z,12.52
2018-03-23T08:50:45.053Z,3.67
2018-03-23T08:53:13.290Z,4.55
2018-03-23T08:55:41.482Z,4.12
2018-03-23T08:58:08.943Z,8.93
2018-03-23T09:00:36.449Z,8.07
2018-03-23T09:03:04.418Z,6.95
2018-03-23T09:05:33.040Z,7.78
2018-03-23T09:08:00.502Z,5.25
2018-03-23T09:10:28.380Z,8.68
2018-03-23T09:12:55.844Z,10.30
2018-03-23T09:15:24.134Z,14.63
2018-03-23T09:17:51.717Z,12.77
2018-03-23T09:20:19.690Z,12.70
2018-03-23T09:22:47.656Z,11.55
2018-03-23T09:25:15.477Z,5.87
2018-03-23T09:27:43.760Z,8.80
2018-03-23T09:30:12.134Z,10.10
2018-03-23T09:32:40.408Z,10.93
2018-03-23T09:35:08.295Z,11.30
2018-03-23T09:37:36.151Z,15.48
2018-03-23T09:40:04.709Z,15.88
2018-03-23T09:42:32.180Z,8.70
2018-03-23T09:45:00.048Z,14.05
2018-03-23T09:47:28.333Z,8.57
2018-03-23T09:49:56.189Z,15.45
2018-03-23T09:52:24.082Z,6.70
2018-03-23T09:54:51.663Z,8.50
2018-03-23T09:57:19.533Z,13.90
2018-03-23T09:59:47.026Z,12.75
2018-03-23T10:02:14.892Z,14.32
2018-03-23T10:04:42.775Z,12.70
2018-03-23T10:07:10.640Z,7.53
2018-03-23T10:09:39.020Z,7.25
2018-03-23T10:12:06.887Z,16.83
2018-03-23T10:14:34.764Z,9.70
2018-03-23T10:17:02.267Z,18.23
2018-03-23T10:19:30.199Z,16.60
2018-03-23T10:21:58.191Z,13.27
2018-03-23T10:24:26.728Z,15.60
2018-03-23T10:26:54.597Z,16.42
2018-03-23T10:29:22.459Z,24.30
2018-03-23T10:31:51.039Z,16.73
2018-03-23T10:34:19.291Z,10.32
2018-03-23T10:36:46.784Z,12.37
2018-03-23T10:39:15.357Z,17.85
2018-03-23T10:41:43.220Z,18.05
2018-03-23T10:44:11.092Z,15.85
2018-03-23T10:46:38.848Z,14.98
2018-03-23T10:49:06.716Z,13.43
2018-03-23T10:51:34.589Z,19.92
2018-03-23T10:54:02.932Z,10.10
2018-03-23T10:56:30.466Z,16.45
2018-03-23T10:58:57.940Z,12.88
2018-03-23T11:01:31.409Z,15.60
2018-03-23T11:03:59.268Z,14.60
2018-03-23T11:06:27.164Z,11.68
2018-03-23T11:08:54.947Z,10.05
2018-03-23T11:11:22.430Z,12.90
2018-03-23T11:13:50.698Z,8.40
2018-03-23T11:16:18.876Z,12.35
2018-03-23T11:18:46.345Z,7.93
2018-03-23T11:21:14.591Z,10.32
2018-03-23T11:23:42.373Z,10.18
2018-03-23T11:26:10.290Z,12.63
2018-03-23T11:28:37.839Z,7.90
2018-03-23T11:31:05.689Z,9.50
2018-03-23T11:33:33.574Z,7.22
2018-03-23T11:36:01.053Z,8.57
2018-03-23T11:38:28.864Z,19.15
2018-03-23T11:40:56.723Z,6.87
2018-03-23T11:43:24.957Z,9.05
2018-03-23T11:45:53.897Z,5.53
2018-03-23T11:48:22.377Z,11.52
2018-03-23T11:50:50.608Z,6.85
2018-03-23T11:53:18.798Z,11.02
2018-03-23T11:55:46.734Z,13.95
2018-03-23T11:58:15.351Z,5.65
2018-03-23T12:00:43.643Z,12.82
2018-03-23T12:03:11.218Z,13.85
2018-03-23T12:05:38.716Z,14.80
2018-03-23T12:08:06.457Z,14.35
2018-03-23T12:10:33.922Z,15.65
2018-03-23T12:13:01.388Z,19.33
2018-03-23T12:15:29.276Z,11.43
2018-03-23T12:17:56.765Z,15.23
2018-03-23T12:20:24.655Z,11.43
2018-03-23T12:22:52.548Z,8.57
2018-03-23T12:25:20.044Z,19.10
2018-03-23T12:27:47.908Z,14.00
2018-03-23T12:30:17.323Z,13.43
2018-03-23T12:32:45.179Z,8.55
2018-03-23T12:35:12.741Z,8.27
2018-03-23T12:37:41.017Z,8.70
2018-03-23T12:40:08.495Z,15.73
2018-03-23T12:42:36.744Z,16.77
2018-03-23T12:45:04.980Z,16.35
2018-03-23T12:47:32.968Z,11.35
2018-03-23T12:50:00.437Z,11.60
2018-03-23T12:52:28.216Z,13.00
2018-03-23T12:54:56.093Z,12.02
2018-03-23T12:57:24.414Z,12.07
2018-03-23T12:59:53.047Z,13.77
2018-03-23T13:02:20.555Z,12.02
2018-03-23T13:04:48.464Z,14.77
2018-03-23T13:07:17.824Z,8.90
2018-03-23T13:09:45.315Z,17.55
2018-03-23T13:12:12.795Z,15.65
2018-03-23T13:14:41.375Z,10.65
2018-03-23T13:17:09.240Z,12.02
2018-03-23T13:19:37.143Z,17.95
2018-03-23T13:22:05.048Z,19.15
2018-03-23T13:24:32.516Z,15.95
2018-03-23T13:27:00.403Z,10.95
2018-03-23T13:29:28.675Z,11.52
2018-03-23T13:31:56.936Z,18.70
2018-03-23T13:34:24.475Z,15.93
2018-03-23T13:36:52.672Z,17.12
2018-03-23T13:39:21.669Z,10.70
2018-03-23T13:41:49.543Z,11.63
2018-03-23T13:44:18.866Z,8.90
2018-03-23T13:46:47.080Z,9.75
2018-03-23T13:49:14.596Z,13.98
2018-03-23T13:51:42.775Z,15.15
2018-03-23T13:54:10.629Z,15.18
2018-03-23T13:56:38.855Z,8.23
2018-03-23T13:59:12.311Z,16.27
2018-03-23T14:01:40.733Z,23.05
2018-03-23T14:04:08.274Z,18.92
2018-03-23T14:06:36.892Z,18.42
2018-03-23T14:09:05.607Z,19.33
2018-03-23T14:11:33.516Z,14.65
2018-03-23T14:14:01.676Z,11.65
2018-03-23T14:16:29.552Z,15.50
2018-03-23T14:18:58.164Z,13.88
2018-03-23T14:21:25.693Z,17.12
2018-03-23T14:23:53.257Z,9.35
2018-03-23T14:26:20.728Z,12.93
2018-03-23T14:28:48.530Z,17.60
2018-03-23T14:31:16.379Z,17.48
2018-03-23T14:33:43.922Z,13.23
2018-03-23T14:36:12.169Z,20.92
2018-03-23T14:38:39.647Z,16.70
2018-03-23T14:41:17.704Z,14.87
2018-03-23T14:43:46.122Z,18.25
2018-03-23T14:46:14.085Z,9.15
2018-03-23T14:48:42.004Z,7.35
2018-03-23T14:51:09.465Z,8.98
2018-03-23T14:53:37.336Z,15.50
2018-03-23T14:56:05.654Z,14.82
2018-03-23T14:58:39.991Z,9.93
2018-03-23T15:01:07.928Z,14.52
2018-03-23T15:03:35.602Z,16.87
2018-03-23T15:06:03.105Z,14.52
2018-03-23T15:08:31.305Z,15.27
2018-03-23T15:10:59.199Z,15.85
2018-03-23T15:13:27.808Z,27.67
2018-03-23T15:15:55.652Z,12.48
2018-03-23T15:18:23.536Z,23.83
2018-03-23T15:20:51.407Z,17.98
2018-03-23T15:23:19.283Z,20.62
2018-03-23T15:28:52.934Z,8.27
2018-03-23T15:31:20.440Z,16.23
2018-03-23T15:33:48.311Z,14.95
2018-03-23T15:36:16.207Z,12.25
2018-03-23T15:38:44.086Z,11.70
2018-03-23T15:41:11.693Z,22.25
2018-03-23T15:43:39.569Z,11.02
2018-03-23T15:46:07.076Z,13.35
2018-03-23T15:48:35.102Z,13.75
2018-03-23T15:51:02.818Z,16.50
2018-03-23T15:53:30.329Z,12.45
2018-03-23T15:55:58.179Z,16.37
2018-03-23T15:58:26.217Z,15.30
2018-03-23T16:00:54.096Z,19.05
2018-03-23T16:03:21.592Z,18.52
2018-03-23T16:05:50.320Z,19.17
2018-03-23T16:08:18.584Z,17.55
2018-03-23T16:10:46.476Z,19.42
2018-03-23T16:13:14.362Z,19.08
2018-03-23T16:15:42.288Z,18.40
2018-03-23T16:18:10.582Z,14.05
2018-03-23T16:20:38.592Z,11.55
2018-03-23T16:23:08.241Z,21.45
2018-03-23T16:25:36.584Z,22.80
2018-03-23T16:28:05.231Z,19.50
2018-03-23T16:30:33.120Z,18.33
2018-03-23T16:33:00.980Z,19.60
2018-03-23T16:35:29.173Z,21.52
2018-03-23T16:37:57.089Z,16.60
2018-03-23T16:40:24.956Z,13.52
2018-03-23T16:42:53.144Z,20.98
2018-03-23T16:45:20.616Z,20.25
2018-03-23T16:47:49.235Z,18.85
2018-03-23T16:50:17.476Z,12.40
2018-03-23T16:52:44.964Z,17.85
2018-03-23T16:55:12.902Z,17.37
2018-03-23T16:57:41.064Z,16.00
2018-03-23T17:00:08.940Z,12.10
2018-03-23T17:02:36.516Z,17.70
2018-03-23T17:05:04.469Z,25.15
2018-03-23T17:07:32.043Z,21.08
2018-03-23T17:10:00.366Z,23.17
2018-03-23T17:12:28.685Z,19.25
2018-03-23T17:14:56.165Z,22.90
2018-03-23T17:17:24.108Z,18.40
2018-03-23T17:19:51.891Z,26.30
2018-03-23T17:22:20.558Z,12.25
2018-03-23T17:24:48.131Z,21.35
2018-03-23T17:27:15.960Z,24.02
2018-03-23T17:29:43.472Z,20.10
2018-03-23T17:32:11.027Z,20.02
2018-03-23T17:34:38.773Z,26.27
2018-03-23T17:37:06.678Z,15.95
2018-03-23T17:39:34.272Z,24.45
2018-03-23T17:42:02.123Z,24.55
2018-03-23T17:44:30.103Z,27.85
2018-03-23T17:46:58.365Z,26.10
2018-03-23T17:49:26.629Z,29.55
2018-03-23T17:51:54.152Z,26.67
2018-03-23T17:54:21.664Z,27.00
2018-03-23T17:56:49.976Z,30.75
2018-03-23T17:59:17.954Z,27.80
2018-03-23T18:01:45.468Z,28.05
2018-03-23T18:04:13.741Z,34.75
2018-03-23T18:06:41.238Z,23.48
2018-03-23T18:09:08.712Z,29.10
2018-03-23T18:11:36.551Z,31.90
2018-03-23T18:14:04.064Z,28.08
2018-03-23T18:16:31.636Z,32.53
2018-03-23T18:19:00.188Z,27.45
2018-03-23T18:21:27.672Z,31.77
2018-03-23T18:23:55.949Z,27.17
2018-03-23T18:26:24.483Z,26.95
2018-03-23T18:28:52.008Z,28.23
2018-03-23T18:31:19.542Z,28.12
2018-03-23T18:33:48.237Z,29.87
2018-03-23T18:36:16.549Z,21.55
2018-03-23T18:38:44.023Z,24.08
2018-03-23T18:41:11.824Z,29.45
2018-03-23T18:43:39.429Z,29.35
2018-03-23T18:46:06.972Z,31.85
2018-03-23T18:48:34.547Z,23.25
2018-03-23T18:51:02.035Z,28.17
2018-03-23T18:53:29.536Z,29.65
2018-03-23T18:55:58.122Z,30.23
2018-03-23T18:58:25.606Z,32.03
2018-03-23T19:00:53.116Z,33.72
2018-03-23T19:03:21.743Z,29.58
2018-03-23T19:05:49.236Z,26.45
2018-03-23T19:08:16.749Z,30.90
2018-03-23T19:10:44.578Z,32.03
2018-03-23T19:13:12.863Z,32.17
2018-03-23T19:15:41.196Z,35.00
2018-03-23T19:18:08.914Z,33.80
2018-03-23T19:20:36.420Z,29.58
2018-03-23T19:23:03.921Z,36.40
2018-03-23T19:25:32.496Z,32.58
2018-03-23T19:28:00.786Z,32.47
2018-03-23T19:30:29.115Z,38.58
2018-03-23T19:32:57.063Z,32.10
2018-03-23T19:35:24.527Z,37.80
2018-03-23T19:37:52.007Z,35.97
2018-03-23T19:40:19.496Z,38.15
2018-03-23T19:42:48.511Z,33.88
2018-03-23T19:45:16.030Z,34.03
2018-03-23T19:47:43.911Z,33.25
2018-03-23T19:50:12.154Z,35.10
2018-03-23T19:52:39.711Z,37.60
2018-03-23T19:55:07.512Z,34.90
2018-03-23T19:57:35.753Z,35.05
2018-03-23T20:00:03.284Z,36.65
2018-03-23T20:02:31.099Z,34.83
2018-03-23T20:04:58.605Z,27.05
2018-03-23T20:07:26.072Z,32.38
2018-03-23T20:09:53.854Z,32.53
2018-03-23T20:12:21.344Z,34.53
2018-03-23T20:14:49.578Z,31.52
2018-03-23T20:30:47.275Z,30.58
2018-03-23T20:33:15.536Z,28.62
2018-03-23T20:35:43.067Z,30.80
2018-03-23T20:38:10.880Z,30.27
2018-03-23T20:40:39.185Z,29.20
2018-03-23T20:43:06.660Z,30.05
2018-03-23T20:45:34.151Z,28.62
2018-03-23T20:48:01.736Z,28.50
2018-03-23T20:50:29.221Z,31.20
2018-03-23T20:52:57.035Z,32.13
2018-03-23T20:55:24.525Z,31.25
2018-03-23T20:57:52.014Z,32.13
2018-03-23T21:00:19.836Z,31.83
2018-03-23T21:02:47.327Z,34.53
2018-03-23T21:05:14.808Z,36.38
2018-03-23T21:07:42.620Z,32.00
2018-03-23T21:10:10.116Z,24.92
2018-03-23T21:12:37.663Z,31.40
2018-03-23T21:15:05.495Z,32.42
2018-03-23T21:17:33.740Z,33.45
2018-03-23T21:20:01.260Z,29.27
2018-03-23T21:22:29.128Z,37.88
2018-03-23T21:24:56.620Z,37.28
2018-03-23T21:27:24.097Z,36.05
2018-03-23T21:29:52.365Z,32.05
2018-03-23T21:32:19.889Z,31.30
2018-03-23T21:34:47.377Z,35.03
2018-03-23T21:37:15.649Z,37.35
2018-03-23T21:39:43.162Z,32.33
2018-03-23T21:42:10.654Z,36.50
2018-03-23T21:44:38.152Z,40.22
2018-03-23T21:47:05.636Z,41.15
2018-03-23T21:49:33.141Z,39.47
2018-03-23T21:52:01.011Z,39.47
2018-03-23T21:54:28.484Z,34.38
2018-03-23T21:56:56.724Z,37.08
2018-03-23T21:59:24.556Z,43.55
2018-03-23T22:01:52.020Z,37.00
2018-03-23T22:04:19.518Z,39.83
2018-03-23T22:06:47.388Z,39.13
2018-03-23T22:09:14.891Z,43.80
2018-03-23T22:11:42.370Z,43.70
2018-03-23T22:14:09.991Z,41.42
2018-03-23T22:16:37.576Z,40.42
2018-03-23T22:19:05.091Z,46.72
2018-03-23T22:21:33.359Z,39.45
2018-03-23T22:24:00.829Z,39.13
2018-03-23T22:26:29.100Z,32.83
2018-03-23T22:28:57.796Z,39.53
2018-03-23T22:31:26.066Z,38.70
2018-03-23T22:33:54.384Z,36.42
2018-03-23T22:36:22.150Z,36.10
2018-03-23T22:38:49.622Z,36.58
2018-03-23T22:41:17.915Z,39.25
2018-03-23T22:43:45.700Z,38.03
2018-03-23T22:46:13.927Z,38.38
2018-03-23T22:48:41.407Z,37.55
2018-03-23T22:51:08.916Z,37.80
2018-03-23T22:53:36.396Z,37.25
2018-03-23T22:56:03.936Z,35.85
2018-03-23T22:58:31.462Z,32.97
2018-03-23T23:00:59.326Z,41.72
2018-03-23T23:03:27.447Z,28.10
2018-03-23T23:05:55.680Z,44.20
2018-03-23T23:08:23.549Z,34.97
2018-03-23T23:10:51.823Z,36.17
2018-03-23T23:13:20.000Z,41.37
2018-03-23T23:15:48.252Z,38.70
2018-03-23T23:18:16.116Z,40.65
2018-03-23T23:20:44.411Z,38.92
2018-03-23T23:23:12.679Z,41.03
2018-03-23T23:25:40.196Z,40.50
2018-03-23T23:28:08.163Z,37.17
2018-03-23T23:30:35.648Z,39.28
2018-03-23T23:33:03.147Z,49.75
2018-03-23T23:35:31.708Z,41.30
2018-03-23T23:37:59.626Z,39.42
2018-03-23T23:40:27.100Z,40.65
2018-03-23T23:42:55.351Z,45.08
2018-03-23T23:45:22.916Z,41.72
2018-03-23T23:47:50.396Z,39.10
2018-03-23T23:50:18.268Z,43.17
2018-03-23T23:52:45.795Z,45.22
2018-03-23T23:55:13.577Z,39.90
2018-03-23T23:57:41.336Z,39.60
